createdAt,value
2022-08-11T00:10:41.003Z,40.08
2022-08-11T00:30:44.404Z,41.39
2022-08-11T00:50:55.917Z,42.30
2022-08-11T01:11:24.190Z,42.49
2022-08-11T01:31:51.267Z,43.42
2022-08-11T01:52:30.950Z,43.93
2022-08-11T02:12:53.041Z,44.87
2022-08-11T02:33:36.512Z,44.75
2022-08-11T02:54:08.682Z,44.86
2022-08-11T03:14:48.406Z,45.74
2022-08-11T03:34:53.901Z,46.54
2022-08-11T03:55:10.952Z,46.84
2022-08-11T04:15:46.183Z,47.52
2022-08-11T04:35:55.275Z,47.74
2022-08-11T04:56:37.367Z,47.60
2022-08-11T05:17:05.006Z,46.81
2022-08-11T05:37:26.821Z,46.13
2022-08-11T05:57:42.366Z,45.38
2022-08-11T06:17:56.278Z,43.46
2022-08-11T06:38:08.609Z,41.88
2022-08-11T06:58:37.721Z,41.58
2022-08-11T07:18:59.703Z,40.29
2022-08-11T07:39:03.970Z,38.91
2022-08-11T08:00:00.208Z,37.84
2022-08-11T08:19:52.284Z,36.20
2022-08-11T08:39:56.467Z,32.82
2022-08-11T09:00:00.688Z,29.92
2022-08-11T09:20:16.207Z,18.43
2022-08-11T09:40:31.588Z,13.97
2022-08-11T10:00:40.467Z,14.70
2022-08-11T10:20:54.206Z,20.29
2022-08-11T10:41:21.151Z,18.25
2022-08-11T11:01:32.391Z,16.86
2022-08-11T11:21:36.892Z,21.70
2022-08-11T11:41:41.195Z,23.84
2022-08-11T12:01:50.186Z,21.53
2022-08-11T12:22:15.833Z,22.85
2022-08-11T12:42:38.539Z,21.14
2022-08-11T13:03:01.093Z,22.45
2022-08-11T13:23:05.843Z,22.02
2022-08-11T13:43:11.099Z,21.07
2022-08-11T14:03:14.968Z,23.88
2022-08-11T14:23:24.724Z,24.88
2022-08-11T14:44:12.212Z,24.41
2022-08-11T15:04:34.303Z,24.01
2022-08-11T15:24:36.861Z,24.64
2022-08-11T15:45:16.517Z,24.97
2022-08-11T16:05:45.930Z,25.59
2022-08-11T16:26:38.116Z,27.69
2022-08-11T16:46:28.858Z,29.12
2022-08-11T17:06:57.496Z,29.21
2022-08-11T17:27:02.309Z,29.44
2022-08-11T17:47:25.557Z,34.25
2022-08-11T18:07:47.771Z,36.74
2022-08-11T18:28:13.074Z,38.48
2022-08-11T18:48:39.962Z,37.99
2022-08-11T19:09:11.286Z,37.90
2022-08-11T19:30:07.472Z,37.09
2022-08-11T19:50:21.625Z,39.49
2022-08-11T20:10:48.002Z,38.46
2022-08-11T20:31:10.745Z,38.75
2022-08-11T20:51:36.734Z,38.81
2022-08-11T21:12:02.528Z,39.85
2022-08-11T21:32:25.267Z,40.28
2022-08-11T21:52:47.283Z,41.04
2022-08-11T22:13:10.649Z,42.20
2022-08-11T22:33:33.054Z,41.85
2022-08-11T22:53:57.274Z,42.17
2022-08-11T23:14:22.486Z,42.53
2022-08-11T23:35:03.670Z,42.74
2022-08-11T23:55:27.771Z,44.22
